Time;durP1;ratioP1;P1;durP2;ratioP2;P2;SDS_P1;SDS_P2;PMS_P1;PMS_P2;Temp;Humidity;BMP_temperature;BMP_pressure;BME280_temperature;BME280_humidity;BME280_pressure;Samples;Min_cycle;Max_cycle;Signal;HPM_P1;HPM_P2
2022/07/04 00:02:07;;;;;;;4.40;2.58;;;15.70;99.90;;;;;;9179150;19;20048;-71
2022/07/04 00:05:15;;;;;;;7.22;2.70;;;15.70;99.90;;;;;;9181590;19;20038;-71
2022/07/04 00:08:20;;;;;;;6.47;2.55;;;15.40;99.90;;;;;;9185764;19;20011;-71
2022/07/04 00:11:24;;;;;;;7.60;3.15;;;15.10;99.90;;;;;;9181345;19;20029;-71
2022/07/04 00:14:28;;;;;;;4.32;2.80;;;15.40;99.90;;;;;;9181771;19;20044;-71
2022/07/04 00:17:32;;;;;;;6.90;2.80;;;15.40;99.90;;;;;;9183962;19;20018;-71
2022/07/04 00:20:43;;;;;;;6.05;2.60;;;15.30;99.90;;;;;;9181350;19;20014;-72
2022/07/04 00:23:48;;;;;;;6.45;3.00;;;15.20;99.90;;;;;;9180240;19;20015;-71
2022/07/04 00:26:52;;;;;;;6.88;2.63;;;15.20;99.90;;;;;;9180120;19;20021;-71
2022/07/04 00:29:56;;;;;;;3.92;3.00;;;15.00;99.90;;;;;;9180556;19;20022;-71
2022/07/04 00:33:00;;;;;;;5.53;2.80;;;15.10;99.90;;;;;;9182926;19;20014;-71
2022/07/04 00:36:07;;;;;;;5.03;2.83;;;15.10;99.90;;;;;;9179619;19;20014;-71
2022/07/04 00:39:10;;;;;;;;;;;15.10;99.90;;;;;;9180313;19;20052;-71
2022/07/04 00:42:14;;;;;;;7.32;3.10;;;15.10;99.90;;;;;;9178455;19;19918;-71
2022/07/04 00:45:19;;;;;;;6.22;2.65;;;14.80;99.90;;;;;;9179468;19;20013;-71
2022/07/04 00:48:22;;;;;;;5.45;2.75;;;15.00;99.90;;;;;;9181012;19;20022;-71
2022/07/04 00:51:29;;;;;;;6.85;3.00;;;15.00;99.90;;;;;;9179765;19;20070;-71
2022/07/04 00:54:34;;;;;;;4.18;2.65;;;14.90;99.90;;;;;;9176580;19;20085;-71
2022/07/04 00:57:38;;;;;;;5.85;3.17;;;15.00;99.90;;;;;;9181232;19;20530;-71
2022/07/04 01:00:42;;;;;;;5.13;2.88;;;15.00;99.90;;;;;;9179072;19;20090;-72
2022/07/04 01:03:47;;;;;;;7.85;2.83;;;14.80;99.90;;;;;;9181010;19;20478;-72
2022/07/04 01:06:55;;;;;;;3.67;2.65;;;15.90;99.90;;;;;;9181981;19;20019;-71
2022/07/04 01:10:00;;;;;;;6.00;2.67;;;14.90;99.90;;;;;;9181109;19;20030;-72
2022/07/04 01:13:04;;;;;;;6.30;2.92;;;14.70;99.90;;;;;;9176226;19;20029;-71
2022/07/04 01:16:08;;;;;;;4.38;2.70;;;14.80;99.90;;;;;;9183652;19;20014;-71
2022/07/04 01:19:12;;;;;;;6.15;3.28;;;14.70;99.90;;;;;;9178013;19;20018;-71
2022/07/04 01:22:19;;;;;;;6.38;3.13;;;14.70;99.90;;;;;;9179136;19;20443;-72
2022/07/04 01:25:22;;;;;;;;;;;14.60;99.90;;;;;;9178810;19;20428;-71
2022/07/04 01:28:27;;;;;;;5.55;2.90;;;14.60;99.90;;;;;;9181831;19;19966;-72
2022/07/04 01:31:31;;;;;;;6.68;3.25;;;14.20;99.90;;;;;;9178493;19;20010;-71
2022/07/04 01:34:35;;;;;;;7.03;3.15;;;14.40;99.90;;;;;;9179446;19;20048;-72
2022/07/04 01:37:41;;;;;;;6.43;3.60;;;14.40;99.90;;;;;;9179550;19;20019;-71
2022/07/04 01:40:45;;;;;;;3.92;3.20;;;14.40;99.90;;;;;;9181690;19;20029;-71
2022/07/04 01:43:49;;;;;;;7.82;3.28;;;14.40;99.90;;;;;;9182592;19;20027;-72
2022/07/04 01:46:53;;;;;;;6.60;3.38;;;14.20;99.90;;;;;;9176748;19;20586;-72
2022/07/04 01:49:57;;;;;;;5.55;2.92;;;14.20;99.90;;;;;;9177075;19;20006;-71
2022/07/04 01:53:05;;;;;;;3.95;2.85;;;14.10;99.90;;;;;;9175911;19;20519;-71
2022/07/04 01:56:09;;;;;;;5.95;2.95;;;14.30;99.90;;;;;;9181368;19;20029;-72
2022/07/04 01:59:13;;;;;;;5.78;3.10;;;14.20;99.90;;;;;;9181208;19;20489;-72
2022/07/04 02:02:14;;;;;;;6.65;3.47;;;14.50;99.90;;;;;;9177303;19;20024;-72
2022/07/04 02:05:18;;;;;;;10.13;3.38;;;14.30;99.90;;;;;;9176720;19;20018;-72
2022/07/04 02:09:14;;;;;;;7.68;3.22;;;14.30;99.90;;;;;;9176054;19;20029;-72
2022/07/04 02:15:07;;;;;;;4.37;3.27;;;14.20;99.90;;;;;;9181500;19;20275;-72
2022/07/04 02:18:14;;;;;;;4.63;2.83;;;14.20;99.90;;;;;;9178839;19;20010;-72
2022/07/04 02:21:18;;;;;;;6.95;2.95;;;14.10;99.90;;;;;;9175961;19;20014;-72
2022/07/04 02:24:24;;;;;;;5.65;3.10;;;14.50;99.90;;;;;;9181728;19;20073;-72
2022/07/04 02:27:28;;;;;;;5.75;3.30;;;14.10;99.90;;;;;;9185612;19;20015;-72
2022/07/04 02:30:32;;;;;;;5.25;3.20;;;14.20;99.90;;;;;;9186786;19;20073;-72
2022/07/04 02:33:36;;;;;;;6.13;3.67;;;14.10;99.90;;;;;;9183540;19;20044;-72
2022/07/04 02:36:40;;;;;;;6.72;3.88;;;14.10;99.90;;;;;;9185196;19;20525;-72
2022/07/04 02:39:47;;;;;;;7.47;3.80;;;14.00;99.90;;;;;;9190493;19;20025;-72
2022/07/04 02:42:50;;;;;;;10.98;4.68;;;13.90;99.90;;;;;;9188499;19;20014;-72
2022/07/04 02:45:55;;;;;;;7.78;4.70;;;13.80;99.90;;;;;;9184613;19;20077;-72
2022/07/04 02:48:59;;;;;;;13.05;5.35;;;13.80;99.90;;;;;;9185067;19;20420;-72
2022/07/04 02:52:03;;;;;;;8.27;5.28;;;13.70;99.90;;;;;;9183691;19;20098;-72
2022/07/04 02:55:10;;;;;;;7.47;4.63;;;13.80;99.90;;;;;;9184096;19;20015;-72
2022/07/04 02:58:14;;;;;;;10.32;4.75;;;13.70;99.90;;;;;;9184562;19;20070;-72
2022/07/04 03:01:19;;;;;;;7.18;4.47;;;13.60;99.90;;;;;;9183787;19;20372;-71
2022/07/04 03:04:23;;;;;;;9.55;4.30;;;13.60;99.90;;;;;;9185236;19;20048;-72
2022/07/04 03:07:27;;;;;;;6.03;4.40;;;13.50;99.90;;;;;;9184235;19;20438;-72
2022/07/04 03:10:33;;;;;;;10.82;4.65;;;13.40;99.90;;;;;;9187776;19;20020;-72
2022/07/04 03:13:38;;;;;;;8.23;4.47;;;13.30;99.90;;;;;;9184060;19;20010;-72
2022/07/04 03:16:42;;;;;;;7.55;4.40;;;13.40;99.90;;;;;;9183291;19;20507;-71
2022/07/04 03:19:46;;;;;;;8.95;4.40;;;13.30;99.90;;;;;;9185301;19;20019;-72
2022/07/04 03:22:51;;;;;;;7.63;4.90;;;13.30;99.90;;;;;;9186192;19;20067;-72
2022/07/04 03:25:58;;;;;;;10.80;4.63;;;13.30;99.90;;;;;;9186934;19;20015;-71
2022/07/04 03:29:04;;;;;;;9.30;4.82;;;13.20;99.90;;;;;;9183303;19;20011;-72
2022/07/04 03:32:08;;;;;;;8.65;4.78;;;13.00;99.90;;;;;;9182853;19;20475;-72
2022/07/04 03:35:12;;;;;;;9.73;5.20;;;13.50;99.90;;;;;;9179967;19;20423;-73
2022/07/04 03:38:16;;;;;;;8.52;4.68;;;13.20;99.90;;;;;;9185808;19;20043;-72
2022/07/04 03:41:23;;;;;;;8.35;4.50;;;13.30;99.90;;;;;;9185074;19;20044;-72
2022/07/04 03:44:27;;;;;;;9.23;4.55;;;13.20;99.90;;;;;;9184441;19;20018;-72
2022/07/04 03:47:30;;;;;;;8.10;5.13;;;13.20;99.90;;;;;;9185805;19;20473;-72
2022/07/04 03:50:34;;;;;;;12.25;5.65;;;13.10;99.90;;;;;;9185181;19;20026;-72
2022/07/04 03:53:39;;;;;;;8.50;5.45;;;13.00;99.90;;;;;;9180273;19;20014;-72
2022/07/04 03:56:45;;;;;;;9.40;6.60;;;13.10;99.90;;;;;;9184836;19;20010;-72
2022/07/04 03:59:49;;;;;;;16.90;8.48;;;13.10;99.90;;;;;;9181690;19;20515;-72
2022/07/04 04:02:53;;;;;;;9.82;6.35;;;13.20;99.90;;;;;;9184961;19;20021;-72
2022/07/04 04:05:54;;;;;;;13.15;6.55;;;13.20;99.90;;;;;;9187036;19;20011;-72
2022/07/04 04:08:58;;;;;;;14.38;7.10;;;13.10;99.90;;;;;;9183054;19;20031;-72
2022/07/04 04:12:05;;;;;;;11.35;6.38;;;13.00;99.90;;;;;;9188619;19;20336;-72
2022/07/04 04:15:11;;;;;;;13.13;5.53;;;13.00;99.90;;;;;;9179223;19;20011;-72
2022/07/04 04:18:15;;;;;;;12.25;5.47;;;13.10;99.90;;;;;;9181164;19;20577;-72
2022/07/04 04:21:19;;;;;;;9.48;4.85;;;13.10;99.90;;;;;;9183182;19;20471;-72
2022/07/04 04:24:23;;;;;;;11.45;5.53;;;13.10;99.90;;;;;;9180316;19;20010;-72
2022/07/04 04:27:30;;;;;;;10.07;5.00;;;13.10;99.90;;;;;;9180553;19;20014;-72
2022/07/04 04:30:34;;;;;;;9.65;5.63;;;13.10;99.90;;;;;;9182430;19;20014;-72
2022/07/04 04:33:38;;;;;;;10.00;5.47;;;13.10;99.90;;;;;;9179123;19;20107;-72
2022/07/04 04:36:42;;;;;;;10.10;5.72;;;;;;;;;;9180203;19;20010;-72
2022/07/04 04:39:46;;;;;;;7.35;5.15;;;12.90;99.90;;;;;;9182307;19;20031;-72
2022/07/04 04:42:53;;;;;;;7.68;5.65;;;12.90;99.90;;;;;;9180205;19;20035;-72
2022/07/04 04:45:57;;;;;;;9.13;5.50;;;12.80;99.90;;;;;;9179961;19;20019;-72
2022/07/04 04:49:00;;;;;;;11.82;6.15;;;12.80;99.90;;;;;;9177825;19;20023;-72
2022/07/04 04:52:05;;;;;;;8.85;6.50;;;12.90;99.90;;;;;;9182528;19;20020;-72
2022/07/04 04:55:10;;;;;;;9.73;6.35;;;13.10;99.90;;;;;;9177129;19;20007;-72
2022/07/04 04:58:17;;;;;;;12.40;6.28;;;13.10;99.90;;;;;;9179839;19;20040;-72
2022/07/04 05:01:21;;;;;;;12.77;6.55;;;13.00;99.90;;;;;;9180405;19;20018;-72
2022/07/04 05:04:25;;;;;;;9.75;6.40;;;13.10;99.90;;;;;;9182144;19;20048;-72
2022/07/04 05:07:29;;;;;;;12.80;6.72;;;13.10;99.90;;;;;;9179665;19;20479;-72
2022/07/04 05:10:33;;;;;;;13.07;6.95;;;13.20;99.90;;;;;;9178998;19;20014;-72
2022/07/04 05:13:40;;;;;;;8.73;6.38;;;13.10;99.90;;;;;;9177743;19;20020;-72
2022/07/04 05:16:44;;;;;;;13.10;5.95;;;13.30;99.90;;;;;;9179027;19;20074;-72
2022/07/04 05:19:48;;;;;;;11.75;6.00;;;13.40;99.90;;;;;;9180865;19;20034;-72
2022/07/04 05:22:52;;;;;;;12.85;6.22;;;13.60;99.90;;;;;;9178194;19;20375;-72
2022/07/04 05:25:56;;;;;;;12.70;6.65;;;13.30;99.90;;;;;;9178022;19;20015;-72
2022/07/04 05:29:03;;;;;;;9.35;6.70;;;13.50;99.90;;;;;;9177972;19;20043;-72
2022/07/04 05:32:07;;;;;;;7.75;6.03;;;13.50;99.90;;;;;;9180127;19;20360;-72
2022/07/04 05:35:12;;;;;;;9.60;6.10;;;13.70;99.90;;;;;;9176111;19;20011;-72
2022/07/04 05:38:19;;;;;;;11.80;6.22;;;13.70;99.90;;;;;;9178335;19;20041;-72
2022/07/04 05:41:23;;;;;;;11.43;6.45;;;13.80;99.90;;;;;;9177523;19;20025;-72
2022/07/04 05:44:30;;;;;;;10.88;6.10;;;14.00;99.90;;;;;;9177714;19;20361;-72
2022/07/04 05:47:34;;;;;;;;;;;13.70;99.90;;;;;;9181024;19;20010;-72
2022/07/04 05:50:38;;;;;;;11.32;6.50;;;13.80;99.90;;;;;;9177849;19;20352;-72
2022/07/04 05:53:42;;;;;;;10.73;6.05;;;13.90;99.90;;;;;;9179797;19;20359;-72
2022/07/04 05:56:46;;;;;;;10.43;7.10;;;14.00;99.90;;;;;;9178426;19;20025;-71
2022/07/04 05:59:53;;;;;;;15.40;7.43;;;13.90;99.90;;;;;;9183077;19;20512;-72
2022/07/04 06:02:57;;;;;;;9.75;6.18;;;14.30;99.90;;;;;;9191496;19;20520;-72
2022/07/04 06:06:01;;;;;;;9.35;6.40;;;14.20;99.90;;;;;;9190867;19;20010;-72
2022/07/04 06:09:05;;;;;;;10.25;6.25;;;14.20;99.90;;;;;;9190935;19;20475;-72
2022/07/04 06:12:09;;;;;;;14.85;6.40;;;14.40;99.90;;;;;;9189068;19;20015;-71
2022/07/04 06:15:16;;;;;;;11.27;6.35;;;14.60;99.90;;;;;;9187203;19;20014;-71
2022/07/04 06:18:21;;;;;;;12.07;6.90;;;14.40;99.90;;;;;;9187542;19;20018;-72
2022/07/04 06:21:25;;;;;;;12.02;6.55;;;14.50;99.90;;;;;;9185675;19;20018;-71
2022/07/04 06:24:29;;;;;;;11.35;6.57;;;14.50;99.90;;;;;;9187238;19;20027;-71
2022/07/04 06:27:32;;;;;;;11.05;6.32;;;14.60;99.90;;;;;;9187712;19;20018;-71
2022/07/04 06:30:39;;;;;;;12.30;6.63;;;14.40;99.90;;;;;;9191203;19;20547;-71
2022/07/04 06:36:59;;;;;;;14.77;6.22;;;14.70;99.90;;;;;;9185253;19;20010;-71
2022/07/04 06:40:03;;;;;;;11.32;6.78;;;14.80;99.90;;;;;;9187522;19;20017;-72
2022/07/04 06:43:07;;;;;;;13.25;7.10;;;14.70;99.90;;;;;;9184452;19;20015;-72
2022/07/04 06:46:13;;;;;;;11.85;7.05;;;14.90;99.90;;;;;;9185754;19;20014;-71
2022/07/04 06:49:17;;;;;;;13.63;6.88;;;14.80;99.90;;;;;;9180961;19;20015;-71
2022/07/04 06:52:21;;;;;;;10.93;6.47;;;15.10;99.90;;;;;;9187292;19;20382;-71
2022/07/04 06:55:25;;;;;;;16.83;6.90;;;15.20;99.90;;;;;;9181945;19;20022;-72
2022/07/04 06:58:29;;;;;;;12.82;6.22;;;15.10;99.90;;;;;;9182322;19;20020;-71
2022/07/04 07:01:35;;;;;;;11.23;5.10;;;15.20;99.90;;;;;;9182018;19;20018;-71
2022/07/04 07:04:41;;;;;;;15.65;4.90;;;15.20;99.90;;;;;;9186923;19;20018;-71
2022/07/04 07:07:44;;;;;;;8.75;5.05;;;15.40;99.90;;;;;;9186864;19;20074;-71
2022/07/04 07:10:48;;;;;;;8.50;5.05;;;15.40;99.90;;;;;;9186520;19;20341;-71
2022/07/04 07:13:53;;;;;;;10.93;4.80;;;15.50;99.90;;;;;;9183105;19;20499;-71
2022/07/04 07:16:59;;;;;;;6.78;4.18;;;15.60;99.90;;;;;;9181992;19;20475;-71
2022/07/04 07:20:04;;;;;;;8.00;3.67;;;15.40;99.90;;;;;;9182359;19;20018;-71
2022/07/04 07:23:08;;;;;;;7.55;3.60;;;15.50;99.90;;;;;;9183140;19;20010;-71
2022/07/04 07:26:13;;;;;;;5.63;3.45;;;15.60;99.90;;;;;;9176057;19;20019;-72
2022/07/04 07:29:17;;;;;;;5.75;3.70;;;15.70;99.90;;;;;;9169707;19;20090;-71
2022/07/04 07:32:23;;;;;;;7.93;3.78;;;15.80;99.90;;;;;;9180183;19;20003;-70
2022/07/04 07:35:27;;;;;;;8.38;3.97;;;15.70;99.90;;;;;;9179534;19;20011;-71
2022/07/04 07:38:31;;;;;;;5.75;3.42;;;15.80;99.90;;;;;;9186981;19;20433;-71
2022/07/04 07:41:35;;;;;;;8.68;3.60;;;15.80;99.90;;;;;;9182695;19;20286;-71
2022/07/04 07:44:39;;;;;;;8.20;3.50;;;15.90;99.90;;;;;;9182148;19;20022;-71
2022/07/04 07:47:46;;;;;;;6.82;3.85;;;15.90;99.90;;;;;;9182329;19;20479;-71
2022/07/04 07:50:50;;;;;;;8.82;3.47;;;16.10;99.90;;;;;;9180869;19;20007;-71
2022/07/04 07:53:54;;;;;;;7.18;3.58;;;16.00;99.90;;;;;;9181030;19;20019;-71
2022/07/04 07:56:58;;;;;;;6.93;3.20;;;16.20;99.90;;;;;;9183425;19;20022;-71
2022/07/04 08:00:05;;;;;;;8.67;3.10;;;16.30;99.90;;;;;;9180246;19;20097;-71
2022/07/04 08:06:28;;;;;;;10.68;3.78;;;16.60;99.90;;;;;;9180413;19;20376;-71
2022/07/04 08:09:32;;;;;;;8.52;3.42;;;16.50;99.90;;;;;;9185934;19;20378;-71
2022/07/04 08:12:36;;;;;;;9.50;3.08;;;16.60;99.90;;;;;;9183330;19;20022;-71
2022/07/04 08:15:40;;;;;;;7.00;3.42;;;16.40;99.90;;;;;;9177644;19;20021;-72
2022/07/04 08:18:47;;;;;;;8.23;2.85;;;16.50;99.90;;;;;;9180098;19;20018;-71
2022/07/04 08:21:52;;;;;;;8.40;3.55;;;16.30;99.90;;;;;;9183137;19;20025;-71
2022/07/04 08:24:56;;;;;;;10.50;3.30;;;16.50;99.90;;;;;;9184586;19;20018;-72
2022/07/04 08:28:00;;;;;;;5.18;2.35;;;16.30;99.90;;;;;;9183667;19;20014;-71
2022/07/04 08:31:04;;;;;;;7.63;2.88;;;16.50;99.90;;;;;;9178060;19;20015;-71
2022/07/04 08:34:11;;;;;;;8.90;2.95;;;16.60;99.90;;;;;;9179716;19;20010;-70
2022/07/04 08:37:15;;;;;;;;;;;16.80;99.90;;;;;;9182239;19;20026;-71
2022/07/04 08:40:19;;;;;;;8.20;3.08;;;16.60;99.90;;;;;;9180045;19;19926;-71
2022/07/04 08:43:26;;;;;;;4.90;2.53;;;16.90;99.90;;;;;;9180343;19;20017;-71
2022/07/04 08:46:30;;;;;;;;;;;16.90;99.90;;;;;;9182954;19;20377;-71
2022/07/04 08:49:37;;;;;;;7.43;2.58;;;17.00;99.90;;;;;;9176859;19;20269;-71
2022/07/04 08:52:41;;;;;;;;;;;17.00;99.90;;;;;;9182093;19;20014;-71
2022/07/04 08:59:04;;;;;;;8.00;3.50;;;16.90;99.90;;;;;;9178724;19;20032;-71
2022/07/04 09:02:09;;;;;;;5.53;2.30;;;16.90;99.90;;;;;;9181902;19;20011;-71
2022/07/04 09:05:16;;;;;;;6.43;2.67;;;16.90;99.90;;;;;;9178863;19;20027;-71
2022/07/04 09:08:20;;;;;;;7.88;2.67;;;16.80;99.90;;;;;;9181808;19;20019;-71
2022/07/04 09:11:24;;;;;;;4.93;2.35;;;16.80;99.90;;;;;;9179323;19;20018;-71
2022/07/04 09:14:28;;;;;;;7.47;2.38;;;16.80;99.90;;;;;;9179101;19;20022;-71
2022/07/04 09:17:36;;;;;;;6.10;2.40;;;16.70;99.90;;;;;;9177862;19;20510;-71
2022/07/04 09:20:43;;;;;;;8.35;2.40;;;16.70;99.90;;;;;;9182157;19;20074;-71
2022/07/04 09:23:49;;;;;;;9.05;2.92;;;16.70;99.90;;;;;;9178273;19;20053;-71
2022/07/04 09:26:52;;;;;;;4.25;2.20;;;16.70;99.90;;;;;;9181804;19;20018;-72
2022/07/04 09:29:56;;;;;;;5.15;2.55;;;16.80;99.90;;;;;;9176080;19;20347;-70
2022/07/04 09:33:04;;;;;;;5.70;2.60;;;16.70;99.90;;;;;;9182627;19;20018;-72
2022/07/04 09:36:17;;;;;;;5.65;2.50;;;16.60;99.90;;;;;;9176704;19;20027;-71
2022/07/04 09:39:22;;;;;;;4.57;1.90;;;16.50;99.90;;;;;;9177319;19;20017;-72
2022/07/04 09:42:26;;;;;;;7.07;2.22;;;16.50;99.90;;;;;;9178044;19;20015;-71
2022/07/04 09:45:31;;;;;;;8.80;2.00;;;16.20;99.90;;;;;;9182023;19;20022;-71
2022/07/04 09:48:53;;;;;;;5.43;2.20;;;15.40;99.90;;;;;;9176612;19;20151;-71
2022/07/04 09:51:59;;;;;;;5.03;2.40;;;16.00;99.90;;;;;;9178453;19;20056;-71
2022/07/04 09:55:05;;;;;;;2.78;1.88;;;16.00;99.90;;;;;;9175960;19;20018;-71
2022/07/04 09:58:11;;;;;;;6.37;2.00;;;16.10;99.90;;;;;;9177311;19;20019;-72
2022/07/04 10:01:22;;;;;;;6.05;2.28;;;15.90;99.90;;;;;;9177307;19;20015;-71
2022/07/04 10:04:40;;;;;;;5.05;2.10;;;16.20;99.90;;;;;;9179562;19;20011;-72
2022/07/04 10:07:49;;;;;;;3.22;1.88;;;16.50;99.90;;;;;;9178402;19;20070;-72
2022/07/04 10:10:58;;;;;;;4.82;2.00;;;16.80;99.90;;;;;;9180575;19;20021;-72
2022/07/04 10:14:02;;;;;;;4.63;2.10;;;16.70;99.90;;;;;;9179482;19;20107;-71
2022/07/04 10:17:08;;;;;;;3.70;1.90;;;16.80;99.90;;;;;;9173024;19;20501;-72
2022/07/04 10:20:14;;;;;;;4.47;1.85;;;16.80;99.90;;;;;;9176162;19;20094;-72
2022/07/04 10:23:22;;;;;;;3.78;1.85;;;16.80;99.90;;;;;;9177847;19;20378;-73
2022/07/04 10:26:27;;;;;;;3.55;1.80;;;16.80;99.90;;;;;;9176118;19;20038;-74
2022/07/04 10:29:31;;;;;;;3.75;1.92;;;16.50;99.90;;;;;;9173997;19;20011;-74
2022/07/04 10:32:36;;;;;;;6.43;2.17;;;16.80;99.90;;;;;;9176962;19;20095;-74
2022/07/04 10:35:53;;;;;;;4.13;2.20;;;16.90;99.90;;;;;;9176018;19;20011;-74
2022/07/04 10:39:01;;;;;;;4.18;2.13;;;17.00;99.90;;;;;;9174404;19;20010;-73
2022/07/04 10:42:06;;;;;;;3.08;2.00;;;17.20;99.90;;;;;;9174455;19;20017;-73
2022/07/04 10:45:11;;;;;;;3.20;1.88;;;17.40;99.90;;;;;;9180889;19;20024;-73
2022/07/04 10:48:22;;;;;;;7.10;1.70;;;17.50;99.90;;;;;;9185692;19;20010;-71
2022/07/04 10:51:51;;;;;;;3.63;1.85;;;17.80;99.90;;;;;;9178323;19;20015;-70
2022/07/04 10:55:00;;;;;;;2.67;1.80;;;18.10;99.90;;;;;;9182539;19;20571;-72
2022/07/04 10:58:04;;;;;;;3.08;1.70;;;17.80;99.90;;;;;;9183089;19;20018;-71
2022/07/04 11:01:14;;;;;;;2.78;1.80;;;17.70;99.90;;;;;;9184802;19;20018;-75
2022/07/04 11:04:48;;;;;;;5.25;2.15;;;17.80;99.90;;;;;;9182338;19;20018;-73
2022/07/04 11:08:00;;;;;;;4.78;2.10;;;17.90;99.90;;;;;;9187259;19;20070;-72
2022/07/04 11:11:07;;;;;;;4.00;1.80;;;18.20;99.90;;;;;;9183627;19;20073;-72
2022/07/04 11:14:33;;;;;;;4.43;2.10;;;18.20;99.90;;;;;;9181704;19;20019;-71
2022/07/04 11:17:40;;;;;;;6.40;2.03;;;18.40;99.90;;;;;;9178815;19;20066;-72
2022/07/04 11:20:47;;;;;;;3.83;1.85;;;18.60;99.90;;;;;;9182440;19;20051;-72
2022/07/04 11:23:54;;;;;;;;;;;18.60;99.90;;;;;;9187147;19;20031;-72
2022/07/04 11:27:03;;;;;;;2.33;1.60;;;18.30;99.90;;;;;;9180423;19;19919;-71
2022/07/04 11:30:08;;;;;;;2.17;1.60;;;18.30;99.90;;;;;;9185214;19;20021;-73
2022/07/04 11:33:20;;;;;;;5.47;1.83;;;18.30;99.90;;;;;;9183129;19;20022;-72
2022/07/04 11:36:24;;;;;;;3.35;1.63;;;18.60;99.90;;;;;;9185260;19;20090;-72
2022/07/04 11:39:28;;;;;;;4.90;1.83;;;18.70;99.90;;;;;;9179407;19;20021;-72
2022/07/04 11:45:50;;;;;;;2.83;1.58;;;19.20;99.90;;;;;;9179546;19;20117;-73
2022/07/04 11:48:54;;;;;;;4.60;1.85;;;18.90;99.90;;;;;;9180362;19;20015;-72
2022/07/04 11:51:59;;;;;;;5.22;1.58;;;19.00;99.90;;;;;;9184835;19;20359;-72
2022/07/04 11:55:03;;;;;;;3.50;1.70;;;18.90;99.90;;;;;;9181006;19;20082;-72
2022/07/04 11:58:09;;;;;;;3.15;1.80;;;18.80;99.90;;;;;;9180609;19;20023;-72
2022/07/04 12:01:13;;;;;;;3.47;1.65;;;18.80;99.90;;;;;;9183307;19;20010;-72
2022/07/04 12:04:19;;;;;;;4.38;1.90;;;18.80;99.90;;;;;;9180530;19;20007;-72
2022/07/04 12:07:25;;;;;;;4.70;2.13;;;18.70;99.90;;;;;;9179378;19;20015;-72
2022/07/04 12:10:29;;;;;;;5.60;2.10;;;18.90;99.90;;;;;;9184317;19;20082;-72
2022/07/04 12:13:35;;;;;;;4.50;1.98;;;18.90;99.90;;;;;;9180517;19;20017;-71
2022/07/04 12:16:39;;;;;;;3.90;1.80;;;18.90;99.90;;;;;;9182459;19;20029;-72
2022/07/04 12:19:53;;;;;;;4.78;1.70;;;16.80;99.90;;;;;;9183082;19;20018;-71
2022/07/04 12:22:59;;;;;;;2.88;1.35;;;19.10;99.80;;;;;;9184502;19;20031;-71
2022/07/04 12:26:03;;;;;;;3.17;1.40;;;19.20;99.50;;;;;;9182839;19;20169;-71
2022/07/04 12:29:11;;;;;;;3.42;1.80;;;19.40;98.60;;;;;;9182727;19;20423;-70
2022/07/04 12:32:15;;;;;;;2.47;1.60;;;19.30;99.00;;;;;;9181725;19;20014;-71
2022/07/04 12:35:35;;;;;;;3.63;1.58;;;19.50;99.20;;;;;;9183658;19;20480;-71
2022/07/04 12:38:41;;;;;;;2.72;1.58;;;19.60;98.90;;;;;;9181529;19;20070;-71
2022/07/04 12:41:47;;;;;;;4.45;1.60;;;19.70;98.80;;;;;;9183166;19;20022;-71
2022/07/04 12:44:53;;;;;;;2.17;1.55;;;19.70;98.70;;;;;;9176522;19;20364;-71
2022/07/04 12:47:57;;;;;;;3.38;1.50;;;19.90;98.40;;;;;;9178855;19;20040;-71
2022/07/04 12:51:13;;;;;;;5.18;1.58;;;20.00;98.00;;;;;;9178632;19;20022;-71
2022/07/04 12:54:17;;;;;;;3.97;1.55;;;20.10;96.90;;;;;;9179118;19;20026;-71
2022/07/04 12:57:21;;;;;;;3.67;1.50;;;20.10;97.30;;;;;;9179764;19;20046;-71
2022/07/04 13:00:28;;;;;;;4.18;1.60;;;20.20;96.50;;;;;;9180603;19;20019;-71
2022/07/04 13:03:32;;;;;;;3.17;1.17;;;20.20;96.40;;;;;;9182312;19;20022;-71
2022/07/04 13:06:36;;;;;;;3.53;1.20;;;20.00;96.30;;;;;;9178911;19;20021;-71
2022/07/04 13:09:40;;;;;;;2.47;1.33;;;20.10;96.90;;;;;;9182869;19;20038;-70
2022/07/04 13:12:44;;;;;;;2.13;1.20;;;20.20;97.00;;;;;;9178357;19;20021;-71
2022/07/04 13:15:50;;;;;;;1.80;1.42;;;20.20;96.00;;;;;;9179052;19;20019;-70
2022/07/04 13:18:55;;;;;;;3.53;1.30;;;20.40;96.70;;;;;;9176854;19;20029;-71
2022/07/04 13:21:59;;;;;;;1.75;1.27;;;20.60;96.90;;;;;;9175314;19;20022;-71
2022/07/04 13:25:03;;;;;;;3.58;1.67;;;20.90;95.60;;;;;;9177156;19;20018;-71
2022/07/04 13:28:07;;;;;;;3.35;1.20;;;22.50;94.80;;;;;;9178188;19;20466;-71
2022/07/04 13:31:15;;;;;;;3.05;1.20;;;20.90;93.90;;;;;;9176755;19;20506;-70
2022/07/04 13:34:19;;;;;;;3.63;1.40;;;20.70;93.50;;;;;;9180991;19;20026;-71
2022/07/04 13:37:24;;;;;;;2.75;1.13;;;20.50;93.90;;;;;;9176680;19;20502;-70
2022/07/04 13:40:29;;;;;;;2.05;1.30;;;20.50;92.90;;;;;;9177308;19;20014;-70
2022/07/04 13:43:33;;;;;;;4.70;1.27;;;20.50;93.40;;;;;;9181300;19;20344;-71
2022/07/04 13:46:40;;;;;;;1.88;1.08;;;20.90;94.10;;;;;;9175460;19;20077;-71
2022/07/04 13:49:44;;;;;;;5.03;1.23;;;20.70;93.60;;;;;;9176477;19;20078;-71
2022/07/04 13:52:48;;;;;;;2.40;1.20;;;20.60;93.60;;;;;;9178163;19;20021;-70
2022/07/04 13:55:52;;;;;;;2.60;1.20;;;21.20;92.40;;;;;;9175302;19;20015;-71
2022/07/04 13:58:56;;;;;;;2.30;1.17;;;21.20;93.40;;;;;;9174084;19;20024;-72
2022/07/04 14:02:02;;;;;;;3.58;1.20;;;21.40;93.20;;;;;;9178572;19;20018;-72
2022/07/04 14:05:06;;;;;;;;;;;21.30;91.40;;;;;;9176299;19;20011;-73
2022/07/04 14:08:11;;;;;;;1.67;1.00;;;21.10;90.60;;;;;;9176719;19;19915;-73
2022/07/04 14:11:15;;;;;;;2.95;1.00;;;21.60;91.60;;;;;;9179806;19;20014;-72
2022/07/04 14:14:19;;;;;;;3.78;1.52;;;21.60;91.80;;;;;;9178571;19;20483;-73
2022/07/04 14:17:25;;;;;;;3.55;1.20;;;21.50;91.70;;;;;;9175916;19;20025;-72
2022/07/04 14:20:29;;;;;;;4.03;1.20;;;21.50;91.40;;;;;;9179780;19;20010;-73
2022/07/04 14:23:42;;;;;;;2.03;1.23;;;21.50;90.90;;;;;;9186646;19;20018;-73
2022/07/04 14:26:46;;;;;;;5.30;1.35;;;21.80;91.60;;;;;;9184308;19;20550;-73
2022/07/04 14:29:50;;;;;;;4.05;1.30;;;21.70;90.70;;;;;;9186517;19;20081;-72
2022/07/04 14:32:57;;;;;;;3.05;1.20;;;21.70;91.10;;;;;;9185869;19;20015;-71
2022/07/04 14:36:01;;;;;;;3.13;1.10;;;21.70;90.70;;;;;;9182380;19;20046;-72
2022/07/04 14:39:05;;;;;;;2.30;1.27;;;21.90;90.70;;;;;;9182609;19;20010;-73
2022/07/04 14:42:09;;;;;;;2.97;1.25;;;21.80;90.40;;;;;;9183856;19;20078;-72
2022/07/04 14:45:13;;;;;;;3.70;1.35;;;21.80;86.00;;;;;;9183194;19;20018;-72
2022/07/04 14:48:20;;;;;;;2.50;1.13;;;23.50;89.20;;;;;;9181350;19;20014;-72
2022/07/04 14:51:24;;;;;;;2.15;1.02;;;22.20;86.80;;;;;;9187303;19;20052;-71
2022/07/04 14:54:28;;;;;;;3.78;1.10;;;22.40;86.20;;;;;;9188076;19;20042;-72
2022/07/04 14:57:32;;;;;;;3.55;1.00;;;21.60;84.30;;;;;;9180302;19;20014;-73
2022/07/04 15:00:36;;;;;;;2.22;1.15;;;21.90;85.60;;;;;;9186226;19;20019;-72
2022/07/04 15:03:42;;;;;;;2.63;1.00;;;21.90;85.80;;;;;;9184357;19;20018;-72
2022/07/04 15:06:47;;;;;;;2.70;1.42;;;21.70;85.80;;;;;;9184922;19;20007;-73
2022/07/04 15:09:51;;;;;;;1.92;1.02;;;21.50;85.90;;;;;;9182655;19;20022;-70
2022/07/04 15:12:55;;;;;;;2.33;1.10;;;21.70;87.80;;;;;;9182937;19;20051;-71
2022/07/04 15:15:59;;;;;;;1.50;1.02;;;21.40;86.70;;;;;;9184321;19;20018;-71
2022/07/04 15:19:06;;;;;;;3.80;1.33;;;21.40;88.60;;;;;;9184651;19;20013;-71
2022/07/04 15:25:42;;;;;;;2.63;1.15;;;21.80;87.40;;;;;;9178068;19;20015;-72
2022/07/04 15:28:46;;;;;;;1.92;1.17;;;22.10;87.20;;;;;;9181896;19;20018;-72
2022/07/04 15:31:50;;;;;;;2.83;1.10;;;21.90;85.50;;;;;;9180478;19;20394;-72
2022/07/04 15:34:58;;;;;;;3.53;1.30;;;21.80;86.00;;;;;;9181762;19;20163;-71
2022/07/04 15:38:02;;;;;;;3.15;1.33;;;22.10;85.10;;;;;;9178351;19;20017;-72
2022/07/04 15:41:09;;;;;;;4.50;1.00;;;21.60;85.40;;;;;;9181658;19;20497;-71
2022/07/04 15:44:13;;;;;;;2.10;0.93;;;21.60;85.70;;;;;;9183972;19;20018;-71
2022/07/04 15:47:17;;;;;;;2.00;1.30;;;21.30;86.80;;;;;;9177031;19;20049;-70
2022/07/04 15:50:23;;;;;;;2.83;1.30;;;21.20;86.40;;;;;;9182792;19;20019;-70
2022/07/04 15:53:27;;;;;;;5.07;1.23;;;21.40;86.70;;;;;;9180607;19;20014;-70
2022/07/04 15:56:31;;;;;;;2.22;1.02;;;21.40;85.20;;;;;;9179761;19;20010;-70
2022/07/04 15:59:35;;;;;;;4.88;1.67;;;21.20;85.70;;;;;;9180939;19;20037;-70
2022/07/04 16:02:39;;;;;;;3.25;1.40;;;21.40;86.80;;;;;;9180323;19;20412;-70
2022/07/04 16:05:46;;;;;;;2.25;0.90;;;21.60;87.80;;;;;;9183554;19;20014;-70
2022/07/04 16:08:50;;;;;;;2.47;1.00;;;21.50;85.90;;;;;;9177941;19;20074;-70
2022/07/04 16:11:54;;;;;;;3.55;0.95;;;21.20;86.70;;;;;;9182995;19;20074;-70
2022/07/04 16:14:57;;;;;;;1.98;0.93;;;21.20;87.20;;;;;;9181603;19;20011;-70
2022/07/04 16:18:01;;;;;;;4.82;3.05;;;21.60;84.90;;;;;;9179613;19;20355;-70
2022/07/04 16:21:08;;;;;;;2.92;1.90;;;21.60;83.40;;;;;;9182082;19;20404;-70
2022/07/04 16:24:13;;;;;;;4.68;1.80;;;21.70;83.70;;;;;;9184445;19;20374;-70
2022/07/04 16:27:16;;;;;;;3.80;1.67;;;21.70;82.50;;;;;;9178993;19;20078;-70